sensor_id;sensor_type;location;lat;lon;timestamp;pressure;altitude;pressure_sealevel;temperature;humidity
59435;BME280;45241;49.768;8.636;2022-09-09T00:04:34;99685.78;;;21.50;71.92
59435;BME280;45241;49.768;8.636;2022-09-09T00:07:18;99685.06;;;22.04;70.44
59435;BME280;45241;49.768;8.636;2022-09-09T00:12:23;99673.78;;;22.26;69.72
59435;BME280;45241;49.768;8.636;2022-09-09T00:15:26;99679.25;;;21.36;73.74
59435;BME280;45241;49.768;8.636;2022-09-09T00:23:12;99675.16;;;22.18;70.37
59435;BME280;45241;49.768;8.636;2022-09-09T00:28:13;99671.03;;;22.26;69.39
59435;BME280;45241;49.768;8.636;2022-09-09T00:30:41;99673.34;;;22.04;70.55
59435;BME280;45241;49.768;8.636;2022-09-09T00:33:11;99675.75;;;22.15;70.37
59435;BME280;45241;49.768;8.636;2022-09-09T00:35:40;99675.69;;;22.25;68.47
59435;BME280;45241;49.768;8.636;2022-09-09T00:40:53;99675.06;;;21.79;70.63
59435;BME280;45241;49.768;8.636;2022-09-09T00:43:26;99667.63;;;22.00;70.36
59435;BME280;45241;49.768;8.636;2022-09-09T00:45:55;99669.19;;;22.16;69.29
59435;BME280;45241;49.768;8.636;2022-09-09T00:48:26;99672.31;;;21.89;69.49
59435;BME280;45241;49.768;8.636;2022-09-09T00:51:00;99682.72;;;21.77;69.58
59435;BME280;45241;49.768;8.636;2022-09-09T00:56:18;99679.75;;;21.74;70.33
59435;BME280;45241;49.768;8.636;2022-09-09T00:58:55;99681.41;;;21.64;70.82
59435;BME280;45241;49.768;8.636;2022-09-09T01:01:23;99675.66;;;21.71;70.69
59435;BME280;45241;49.768;8.636;2022-09-09T01:03:55;99681.25;;;22.10;70.66
59435;BME280;45241;49.768;8.636;2022-09-09T01:06:30;99672.59;;;21.88;69.78
59435;BME280;45241;49.768;8.636;2022-09-09T01:16:37;99670.19;;;21.81;71.31
59435;BME280;45241;49.768;8.636;2022-09-09T01:19:03;99672.19;;;21.55;72.42
59435;BME280;45241;49.768;8.636;2022-09-09T01:26:40;99670.56;;;21.24;73.79
59435;BME280;45241;49.768;8.636;2022-09-09T01:29:07;99668.59;;;21.70;72.08
59435;BME280;45241;49.768;8.636;2022-09-09T01:31:37;99671.09;;;21.36;73.90
59435;BME280;45241;49.768;8.636;2022-09-09T01:34:08;99665.44;;;22.02;71.83
59435;BME280;45241;49.768;8.636;2022-09-09T01:36:36;99667.09;;;21.93;71.71
59435;BME280;45241;49.768;8.636;2022-09-09T01:39:03;99659.34;;;21.40;74.20
59435;BME280;45241;49.768;8.636;2022-09-09T01:41:28;99665.13;;;21.13;76.02
59435;BME280;45241;49.768;8.636;2022-09-09T01:43:54;99661.28;;;21.35;74.90
59435;BME280;45241;49.768;8.636;2022-09-09T01:46:21;99670.78;;;21.68;73.16
59435;BME280;45241;49.768;8.636;2022-09-09T01:48:47;99664.53;;;21.47;74.45
59435;BME280;45241;49.768;8.636;2022-09-09T01:51:13;99669.19;;;21.36;74.35
59435;BME280;45241;49.768;8.636;2022-09-09T01:53:39;99671.03;;;21.71;73.31
59435;BME280;45241;49.768;8.636;2022-09-09T01:56:15;99669.47;;;21.30;75.15
59435;BME280;45241;49.768;8.636;2022-09-09T01:58:57;99664.59;;;21.06;75.86
59435;BME280;45241;49.768;8.636;2022-09-09T02:03:52;99674.38;;;21.33;75.38
59435;BME280;45241;49.768;8.636;2022-09-09T02:06:27;99672.19;;;21.25;75.42
59435;BME280;45241;49.768;8.636;2022-09-09T02:08:55;99661.81;;;21.27;75.03
59435;BME280;45241;49.768;8.636;2022-09-09T02:11:22;99662.69;;;21.07;76.21
59435;BME280;45241;49.768;8.636;2022-09-09T02:13:48;99666.16;;;21.38;74.91
59435;BME280;45241;49.768;8.636;2022-09-09T02:21:25;99668.66;;;21.19;75.67
59435;BME280;45241;49.768;8.636;2022-09-09T02:23:53;99681.13;;;21.71;73.85
59435;BME280;45241;49.768;8.636;2022-09-09T02:26:21;99670.00;;;21.37;74.97
59435;BME280;45241;49.768;8.636;2022-09-09T02:28:48;99675.44;;;21.27;76.13
59435;BME280;45241;49.768;8.636;2022-09-09T02:31:15;99684.69;;;20.44;79.22
59435;BME280;45241;49.768;8.636;2022-09-09T02:33:42;99681.75;;;21.02;77.46
59435;BME280;45241;49.768;8.636;2022-09-09T02:36:09;99686.91;;;21.34;75.17
59435;BME280;45241;49.768;8.636;2022-09-09T02:38:37;99678.16;;;20.61;78.73
59435;BME280;45241;49.768;8.636;2022-09-09T02:41:04;99683.38;;;21.28;76.45
59435;BME280;45241;49.768;8.636;2022-09-09T02:43:32;99680.13;;;20.96;76.82
59435;BME280;45241;49.768;8.636;2022-09-09T02:46:02;99677.34;;;20.60;79.99
59435;BME280;45241;49.768;8.636;2022-09-09T02:48:30;99684.22;;;21.08;76.71
59435;BME280;45241;49.768;8.636;2022-09-09T02:51:05;99683.13;;;20.84;78.04
59435;BME280;45241;49.768;8.636;2022-09-09T02:53:38;99674.41;;;21.02;77.97
59435;BME280;45241;49.768;8.636;2022-09-09T02:56:05;99671.66;;;21.07;76.39
59435;BME280;45241;49.768;8.636;2022-09-09T02:58:34;99674.34;;;21.38;74.98
59435;BME280;45241;49.768;8.636;2022-09-09T03:00:59;99668.97;;;21.02;76.60
59435;BME280;45241;49.768;8.636;2022-09-09T03:03:27;99674.66;;;21.21;75.11
59435;BME280;45241;49.768;8.636;2022-09-09T03:05:53;99681.50;;;20.78;78.08
59435;BME280;45241;49.768;8.636;2022-09-09T03:08:18;99677.41;;;20.96;76.71
59435;BME280;45241;49.768;8.636;2022-09-09T03:10:43;99685.28;;;20.72;77.96
59435;BME280;45241;49.768;8.636;2022-09-09T03:13:09;99678.75;;;21.29;75.92
59435;BME280;45241;49.768;8.636;2022-09-09T03:15:35;99676.03;;;20.83;77.95
59435;BME280;45241;49.768;8.636;2022-09-09T03:18:00;99668.41;;;21.05;76.55
59435;BME280;45241;49.768;8.636;2022-09-09T03:20:29;99671.38;;;21.19;76.17
59435;BME280;45241;49.768;8.636;2022-09-09T03:22:55;99684.75;;;21.00;77.37
59435;BME280;45241;49.768;8.636;2022-09-09T03:25:20;99681.44;;;20.58;79.18
59435;BME280;45241;49.768;8.636;2022-09-09T03:27:45;99679.59;;;20.78;78.68
59435;BME280;45241;49.768;8.636;2022-09-09T03:30:10;99687.22;;;20.81;78.62
59435;BME280;45241;49.768;8.636;2022-09-09T03:32:36;99688.81;;;21.23;76.70
59435;BME280;45241;49.768;8.636;2022-09-09T03:35:01;99691.28;;;21.14;76.64
59435;BME280;45241;49.768;8.636;2022-09-09T03:37:27;99697.81;;;20.73;79.40
59435;BME280;45241;49.768;8.636;2022-09-09T03:39:52;99697.28;;;20.66;79.48
59435;BME280;45241;49.768;8.636;2022-09-09T03:42:19;99695.94;;;20.78;79.42
59435;BME280;45241;49.768;8.636;2022-09-09T03:44:45;99700.56;;;21.08;77.11
59435;BME280;45241;49.768;8.636;2022-09-09T03:47:15;99697.00;;;21.18;76.18
59435;BME280;45241;49.768;8.636;2022-09-09T03:49:40;99687.47;;;21.05;77.46
59435;BME280;45241;49.768;8.636;2022-09-09T03:52:06;99692.56;;;20.46;79.54
59435;BME280;45241;49.768;8.636;2022-09-09T03:54:31;99689.94;;;21.17;76.75
59435;BME280;45241;49.768;8.636;2022-09-09T03:56:56;99685.81;;;21.14;77.64
59435;BME280;45241;49.768;8.636;2022-09-09T03:59:22;99688.03;;;20.77;78.43
59435;BME280;45241;49.768;8.636;2022-09-09T04:01:48;99675.22;;;21.18;76.81
59435;BME280;45241;49.768;8.636;2022-09-09T04:04:13;99674.66;;;21.11;76.98
59435;BME280;45241;49.768;8.636;2022-09-09T04:06:38;99678.69;;;20.58;78.88
59435;BME280;45241;49.768;8.636;2022-09-09T04:09:04;99665.09;;;21.34;75.38
59435;BME280;45241;49.768;8.636;2022-09-09T04:11:29;99671.66;;;21.07;76.44
59435;BME280;45241;49.768;8.636;2022-09-09T04:13:54;99671.13;;;20.95;77.32
59435;BME280;45241;49.768;8.636;2022-09-09T04:16:19;99664.84;;;21.00;76.33
59435;BME280;45241;49.768;8.636;2022-09-09T04:18:45;99658.84;;;21.23;75.58
59435;BME280;45241;49.768;8.636;2022-09-09T04:21:10;99671.63;;;20.62;78.92
59435;BME280;45241;49.768;8.636;2022-09-09T04:23:37;99672.44;;;20.57;79.09
59435;BME280;45241;49.768;8.636;2022-09-09T04:26:02;99676.03;;;21.29;76.26
59435;BME280;45241;49.768;8.636;2022-09-09T04:28:28;99669.78;;;20.67;79.83
59435;BME280;45241;49.768;8.636;2022-09-09T04:30:54;99682.31;;;20.94;78.26
59435;BME280;45241;49.768;8.636;2022-09-09T04:33:19;99680.44;;;19.96;82.47
59435;BME280;45241;49.768;8.636;2022-09-09T04:35:46;99677.41;;;20.86;78.64
59435;BME280;45241;49.768;8.636;2022-09-09T04:38:12;99670.00;;;20.61;78.67
59435;BME280;45241;49.768;8.636;2022-09-09T04:40:38;99674.41;;;20.77;79.49
59435;BME280;45241;49.768;8.636;2022-09-09T04:43:07;99675.19;;;21.13;77.20
59435;BME280;45241;49.768;8.636;2022-09-09T04:45:33;99684.22;;;21.03;78.09
59435;BME280;45241;49.768;8.636;2022-09-09T04:47:58;99679.78;;;21.48;75.30
59435;BME280;45241;49.768;8.636;2022-09-09T04:50:24;99691.00;;;21.11;76.48
59435;BME280;45241;49.768;8.636;2022-09-09T04:52:49;99692.31;;;20.52;79.43
59435;BME280;45241;49.768;8.636;2022-09-09T04:55:15;99686.34;;;20.50;80.15
59435;BME280;45241;49.768;8.636;2022-09-09T04:57:40;99692.88;;;20.60;78.93
59435;BME280;45241;49.768;8.636;2022-09-09T05:00:06;99693.13;;;20.43;79.61
59435;BME280;45241;49.768;8.636;2022-09-09T05:02:32;99700.25;;;20.74;78.55
59435;BME280;45241;49.768;8.636;2022-09-09T05:04:57;99694.91;;;20.02;80.86
59435;BME280;45241;49.768;8.636;2022-09-09T05:07:23;99699.00;;;20.09;80.91
59435;BME280;45241;49.768;8.636;2022-09-09T05:09:48;99705.16;;;20.67;79.09
59435;BME280;45241;49.768;8.636;2022-09-09T05:12:14;99701.09;;;20.95;77.17
59435;BME280;45241;49.768;8.636;2022-09-09T05:14:41;99714.38;;;20.51;79.30
59435;BME280;45241;49.768;8.636;2022-09-09T05:17:06;99718.34;;;20.18;80.32
59435;BME280;45241;49.768;8.636;2022-09-09T05:19:31;99712.69;;;20.30;79.21
59435;BME280;45241;49.768;8.636;2022-09-09T05:21:57;99720.72;;;21.07;77.48
59435;BME280;45241;49.768;8.636;2022-09-09T05:24:22;99718.72;;;20.52;79.14
59435;BME280;45241;49.768;8.636;2022-09-09T05:26:48;99718.50;;;20.64;78.75
59435;BME280;45241;49.768;8.636;2022-09-09T05:29:13;99729.72;;;21.03;77.12
59435;BME280;45241;49.768;8.636;2022-09-09T05:31:39;99738.00;;;20.35;79.39
59435;BME280;45241;49.768;8.636;2022-09-09T05:34:04;99730.22;;;20.69;78.83
59435;BME280;45241;49.768;8.636;2022-09-09T05:36:29;99729.72;;;21.28;76.54
59435;BME280;45241;49.768;8.636;2022-09-09T05:38:54;99731.34;;;20.94;77.06
59435;BME280;45241;49.768;8.636;2022-09-09T05:41:20;99728.06;;;20.87;77.19
59435;BME280;45241;49.768;8.636;2022-09-09T05:43:46;99729.94;;;20.76;77.75
59435;BME280;45241;49.768;8.636;2022-09-09T05:46:14;99744.69;;;20.85;76.90
59435;BME280;45241;49.768;8.636;2022-09-09T05:48:40;99735.97;;;20.83;78.39
59435;BME280;45241;49.768;8.636;2022-09-09T05:51:07;99746.75;;;20.47;79.99
59435;BME280;45241;49.768;8.636;2022-09-09T05:53:33;99741.84;;;20.49;80.71
59435;BME280;45241;49.768;8.636;2022-09-09T05:56:06;99736.50;;;21.41;75.26
59435;BME280;45241;49.768;8.636;2022-09-09T05:58:32;99747.16;;;21.17;77.46
59435;BME280;45241;49.768;8.636;2022-09-09T06:01:01;99749.88;;;21.37;76.04
59435;BME280;45241;49.768;8.636;2022-09-09T06:03:27;99749.28;;;20.74;78.19
59435;BME280;45241;49.768;8.636;2022-09-09T06:06:02;99753.97;;;20.99;78.07
59435;BME280;45241;49.768;8.636;2022-09-09T06:08:30;99751.78;;;21.37;76.28
59435;BME280;45241;49.768;8.636;2022-09-09T06:11:00;99754.78;;;21.15;77.36
59435;BME280;45241;49.768;8.636;2022-09-09T06:13:27;99751.50;;;20.82;79.13
59435;BME280;45241;49.768;8.636;2022-09-09T06:15:52;99745.25;;;21.33;76.53
59435;BME280;45241;49.768;8.636;2022-09-09T06:18:18;99745.78;;;21.25;78.56
59435;BME280;45241;49.768;8.636;2022-09-09T06:20:59;99752.88;;;21.61;75.38
59435;BME280;45241;49.768;8.636;2022-09-09T06:23:25;99751.53;;;21.33;75.02
59435;BME280;45241;49.768;8.636;2022-09-09T06:25:51;99748.78;;;21.54;76.76
59435;BME280;45241;49.768;8.636;2022-09-09T06:28:17;99740.34;;;21.04;77.42
59435;BME280;45241;49.768;8.636;2022-09-09T06:30:43;99742.97;;;21.96;74.46
59435;BME280;45241;49.768;8.636;2022-09-09T06:33:08;99740.34;;;21.04;78.37
59435;BME280;45241;49.768;8.636;2022-09-09T06:35:34;99747.41;;;21.46;76.15
59435;BME280;45241;49.768;8.636;2022-09-09T06:37:59;99749.31;;;20.84;79.46
59435;BME280;45241;49.768;8.636;2022-09-09T06:40:24;99761.88;;;20.96;79.43
59435;BME280;45241;49.768;8.636;2022-09-09T06:42:50;99758.31;;;20.90;79.60
59435;BME280;45241;49.768;8.636;2022-09-09T06:45:15;99759.69;;;21.64;76.19
59435;BME280;45241;49.768;8.636;2022-09-09T06:47:40;99753.44;;;21.23;78.08
59435;BME280;45241;49.768;8.636;2022-09-09T06:50:06;99767.59;;;21.40;78.89
59435;BME280;45241;49.768;8.636;2022-09-09T06:52:32;99764.59;;;20.91;80.17
59435;BME280;45241;49.768;8.636;2022-09-09T06:54:58;99756.53;;;22.21;75.55
59435;BME280;45241;49.768;8.636;2022-09-09T06:57:23;99768.13;;;21.27;78.15
59435;BME280;45241;49.768;8.636;2022-09-09T06:59:49;99768.88;;;21.98;74.53
59435;BME280;45241;49.768;8.636;2022-09-09T07:02:14;99774.97;;;21.60;77.71
59435;BME280;45241;49.768;8.636;2022-09-09T07:04:39;99767.06;;;21.63;77.73
59435;BME280;45241;49.768;8.636;2022-09-09T07:07:05;99757.22;;;21.37;77.39
59435;BME280;45241;49.768;8.636;2022-09-09T07:09:30;99757.78;;;21.44;77.30
59435;BME280;45241;49.768;8.636;2022-09-09T07:11:56;99748.22;;;21.72;76.35
59435;BME280;45241;49.768;8.636;2022-09-09T07:14:24;99756.91;;;21.94;75.75
59435;BME280;45241;49.768;8.636;2022-09-09T07:16:49;99745.25;;;21.12;78.97
59435;BME280;45241;49.768;8.636;2022-09-09T07:19:14;99758.34;;;21.21;78.76
59435;BME280;45241;49.768;8.636;2022-09-09T07:21:40;99754.63;;;22.17;76.37
59435;BME280;45241;49.768;8.636;2022-09-09T07:24:05;99757.78;;;21.54;76.49
59435;BME280;45241;49.768;8.636;2022-09-09T07:26:32;99755.16;;;22.24;74.48
59435;BME280;45241;49.768;8.636;2022-09-09T07:28:58;99747.97;;;21.33;78.09
59435;BME280;45241;49.768;8.636;2022-09-09T07:31:31;99764.84;;;21.40;78.63
59435;BME280;45241;49.768;8.636;2022-09-09T07:33:57;99766.50;;;20.95;80.13
59435;BME280;45241;49.768;8.636;2022-09-09T07:36:24;99769.22;;;20.95;80.55
59435;BME280;45241;49.768;8.636;2022-09-09T07:38:51;99772.50;;;21.23;80.47
59435;BME280;45241;49.768;8.636;2022-09-09T07:41:19;99756.56;;;22.11;77.89
59435;BME280;45241;49.768;8.636;2022-09-09T07:43:45;99763.22;;;21.64;78.91
59435;BME280;45241;49.768;8.636;2022-09-09T07:46:11;99772.69;;;22.02;79.23
59435;BME280;45241;49.768;8.636;2022-09-09T07:48:37;99771.69;;;21.53;79.28
59435;BME280;45241;49.768;8.636;2022-09-09T07:51:07;99761.97;;;22.37;75.24
59435;BME280;45241;49.768;8.636;2022-09-09T07:53:33;99772.56;;;22.43;75.98
59435;BME280;45241;49.768;8.636;2022-09-09T07:56:03;99773.97;;;22.25;76.05
59435;BME280;45241;49.768;8.636;2022-09-09T07:58:28;99769.34;;;22.26;76.88
59435;BME280;45241;49.768;8.636;2022-09-09T08:00:53;99777.94;;;21.79;78.91
59435;BME280;45241;49.768;8.636;2022-09-09T08:03:19;99779.94;;;22.43;75.00
59435;BME280;45241;49.768;8.636;2022-09-09T08:05:46;99787.78;;;21.34;78.78
59435;BME280;45241;49.768;8.636;2022-09-09T08:08:12;99784.53;;;21.67;77.56
59435;BME280;45241;49.768;8.636;2022-09-09T08:10:37;99784.22;;;21.64;77.44
59435;BME280;45241;49.768;8.636;2022-09-09T08:13:02;99787.78;;;21.29;78.88
59435;BME280;45241;49.768;8.636;2022-09-09T08:15:27;99789.19;;;22.96;73.94
59435;BME280;45241;49.768;8.636;2022-09-09T08:17:53;99786.06;;;22.74;74.02
59435;BME280;45241;49.768;8.636;2022-09-09T08:20:18;99789.13;;;23.06;71.79
59435;BME280;45241;49.768;8.636;2022-09-09T08:22:43;99783.06;;;22.75;73.02
59435;BME280;45241;49.768;8.636;2022-09-09T08:25:09;99782.75;;;23.26;71.09
59435;BME280;45241;49.768;8.636;2022-09-09T08:27:35;99797.19;;;22.87;70.44
59435;BME280;45241;49.768;8.636;2022-09-09T08:30:00;99790.16;;;23.55;68.43
59435;BME280;45241;49.768;8.636;2022-09-09T08:32:25;99795.47;;;23.41;68.70
59435;BME280;45241;49.768;8.636;2022-09-09T08:34:51;99797.13;;;22.98;69.45
59435;BME280;45241;49.768;8.636;2022-09-09T08:37:16;99797.00;;;22.74;70.45
59435;BME280;45241;49.768;8.636;2022-09-09T08:39:41;99808.78;;;22.64;70.19
59435;BME280;45241;49.768;8.636;2022-09-09T08:42:16;99820.00;;;23.12;69.27
59435;BME280;45241;49.768;8.636;2022-09-09T08:47:16;99809.59;;;23.09;70.93
59435;BME280;45241;49.768;8.636;2022-09-09T08:52:54;99801.72;;;22.58;72.39
59435;BME280;45241;49.768;8.636;2022-09-09T08:58:04;99810.75;;;23.03;69.55
59435;BME280;45241;49.768;8.636;2022-09-09T09:00:36;99813.16;;;23.48;69.40
59435;BME280;45241;49.768;8.636;2022-09-09T09:03:25;99808.13;;;22.87;70.93
59435;BME280;45241;49.768;8.636;2022-09-09T09:08:31;99802.81;;;23.45;68.69
59435;BME280;45241;49.768;8.636;2022-09-09T09:11:02;99803.53;;;23.22;69.91
59435;BME280;45241;49.768;8.636;2022-09-09T09:13:34;99794.94;;;23.68;67.57
59435;BME280;45241;49.768;8.636;2022-09-09T09:18:43;99797.78;;;24.58;65.69
59435;BME280;45241;49.768;8.636;2022-09-09T09:21:11;99803.75;;;23.65;66.45
59435;BME280;45241;49.768;8.636;2022-09-09T09:23:43;99799.53;;;24.01;66.07
59435;BME280;45241;49.768;8.636;2022-09-09T09:26:11;99807.91;;;24.15;66.91
59435;BME280;45241;49.768;8.636;2022-09-09T09:28:37;99808.09;;;23.66;67.96
59435;BME280;45241;49.768;8.636;2022-09-09T09:31:09;99801.38;;;23.82;67.46
59435;BME280;45241;49.768;8.636;2022-09-09T09:36:11;99800.88;;;23.75;67.54
59435;BME280;45241;49.768;8.636;2022-09-09T09:38:40;99798.94;;;23.17;70.03
59435;BME280;45241;49.768;8.636;2022-09-09T09:41:16;99789.78;;;23.32;70.06
59435;BME280;45241;49.768;8.636;2022-09-09T09:43:53;99780.88;;;23.16;71.07
59435;BME280;45241;49.768;8.636;2022-09-09T09:46:19;99785.81;;;23.09;71.29
59435;BME280;45241;49.768;8.636;2022-09-09T09:48:45;99791.47;;;23.86;69.24
59435;BME280;45241;49.768;8.636;2022-09-09T09:51:21;99800.75;;;22.83;70.83
59435;BME280;45241;49.768;8.636;2022-09-09T09:53:47;99798.25;;;22.92;70.27
59435;BME280;45241;49.768;8.636;2022-09-09T09:56:14;99791.22;;;23.25;71.45
59435;BME280;45241;49.768;8.636;2022-09-09T10:01:24;99793.88;;;22.46;72.68
59435;BME280;45241;49.768;8.636;2022-09-09T10:03:51;99799.03;;;23.41;70.91
59435;BME280;45241;49.768;8.636;2022-09-09T10:06:16;99795.16;;;24.29;68.32
59435;BME280;45241;49.768;8.636;2022-09-09T10:08:45;99791.97;;;25.21;65.34
59435;BME280;45241;49.768;8.636;2022-09-09T10:21:26;99792.44;;;24.00;67.08
59435;BME280;45241;49.768;8.636;2022-09-09T10:37:01;99757.38;;;24.88;61.71
59435;BME280;45241;49.768;8.636;2022-09-09T10:39:39;99747.81;;;25.37;61.39
59435;BME280;45241;49.768;8.636;2022-09-09T10:42:14;99757.59;;;24.91;59.92
59435;BME280;45241;49.768;8.636;2022-09-09T10:52:32;99732.41;;;25.41;61.05
59435;BME280;45241;49.768;8.636;2022-09-09T10:55:20;99729.03;;;25.44;60.31
59435;BME280;45241;49.768;8.636;2022-09-09T10:57:51;99724.41;;;24.93;59.30
59435;BME280;45241;49.768;8.636;2022-09-09T11:00:19;99730.53;;;24.28;62.10
59435;BME280;45241;49.768;8.636;2022-09-09T11:02:47;99729.69;;;25.22;60.46
59435;BME280;45241;49.768;8.636;2022-09-09T11:07:47;99729.06;;;24.92;60.40
59435;BME280;45241;49.768;8.636;2022-09-09T11:12:59;99731.09;;;25.19;57.44
59435;BME280;45241;49.768;8.636;2022-09-09T11:15:31;99734.25;;;24.94;58.22
59435;BME280;45241;49.768;8.636;2022-09-09T11:18:01;99735.47;;;25.53;57.69
59435;BME280;45241;49.768;8.636;2022-09-09T11:20:27;99738.03;;;25.49;57.54
59435;BME280;45241;49.768;8.636;2022-09-09T11:22:55;99740.56;;;25.46;55.61
59435;BME280;45241;49.768;8.636;2022-09-09T11:25:30;99741.63;;;25.91;55.54
59435;BME280;45241;49.768;8.636;2022-09-09T11:27:59;99732.56;;;26.04;57.09
59435;BME280;45241;49.768;8.636;2022-09-09T11:30:32;99737.03;;;26.42;55.42
59435;BME280;45241;49.768;8.636;2022-09-09T11:35:40;99734.94;;;26.11;55.11
59435;BME280;45241;49.768;8.636;2022-09-09T11:38:19;99750.13;;;25.48;56.91
59435;BME280;45241;49.768;8.636;2022-09-09T11:40:46;99734.94;;;26.11;58.07
59435;BME280;45241;49.768;8.636;2022-09-09T11:43:14;99740.19;;;26.07;57.06
59435;BME280;45241;49.768;8.636;2022-09-09T11:45:41;99731.66;;;26.36;56.90
59435;BME280;45241;49.768;8.636;2022-09-09T11:51:12;99731.44;;;25.64;57.80
59435;BME280;45241;49.768;8.636;2022-09-09T11:53:59;99741.97;;;25.25;58.43
59435;BME280;45241;49.768;8.636;2022-09-09T11:58:57;99744.56;;;25.35;58.50
59435;BME280;45241;49.768;8.636;2022-09-09T12:04:10;99745.00;;;23.81;61.37
59435;BME280;45241;49.768;8.636;2022-09-09T12:06:48;99762.09;;;24.21;60.03
59435;BME280;45241;49.768;8.636;2022-09-09T12:09:27;99745.38;;;24.84;60.23
59435;BME280;45241;49.768;8.636;2022-09-09T12:12:04;99747.56;;;24.63;58.86
59435;BME280;45241;49.768;8.636;2022-09-09T12:15:16;99751.78;;;23.89;61.10
59435;BME280;45241;49.768;8.636;2022-09-09T12:17:23;99757.91;;;24.28;59.31
59435;BME280;45241;49.768;8.636;2022-09-09T12:19:48;99761.72;;;23.80;59.33
59435;BME280;45241;49.768;8.636;2022-09-09T12:25:01;99751.44;;;25.00;57.17
59435;BME280;45241;49.768;8.636;2022-09-09T12:27:31;99754.53;;;25.12;55.65
59435;BME280;45241;49.768;8.636;2022-09-09T12:30:12;99757.59;;;24.73;56.21
59435;BME280;45241;49.768;8.636;2022-09-09T12:32:39;99757.22;;;24.18;58.69
59435;BME280;45241;49.768;8.636;2022-09-09T12:37:44;99758.03;;;24.18;59.82
59435;BME280;45241;49.768;8.636;2022-09-09T12:40:22;99763.53;;;23.89;60.22
59435;BME280;45241;49.768;8.636;2022-09-09T12:42:47;99763.66;;;24.27;59.54
59435;BME280;45241;49.768;8.636;2022-09-09T12:47:46;99767.56;;;24.63;56.76
59435;BME280;45241;49.768;8.636;2022-09-09T12:50:17;99749.56;;;24.57;56.94
59435;BME280;45241;49.768;8.636;2022-09-09T12:52:43;99756.94;;;24.38;56.61
59435;BME280;45241;49.768;8.636;2022-09-09T12:55:16;99759.84;;;23.75;55.90
59435;BME280;45241;49.768;8.636;2022-09-09T12:57:42;99753.84;;;24.02;55.76
59435;BME280;45241;49.768;8.636;2022-09-09T13:00:15;99759.25;;;23.54;55.31
59435;BME280;45241;49.768;8.636;2022-09-09T13:02:54;99750.16;;;23.59;55.75
59435;BME280;45241;49.768;8.636;2022-09-09T13:05:21;99742.78;;;23.83;55.48
59435;BME280;45241;49.768;8.636;2022-09-09T13:07:47;99746.91;;;24.10;56.34
59435;BME280;45241;49.768;8.636;2022-09-09T13:10:13;99726.31;;;24.12;56.88
59435;BME280;45241;49.768;8.636;2022-09-09T13:12:39;99728.34;;;23.54;59.18
59435;BME280;45241;49.768;8.636;2022-09-09T13:15:10;99720.91;;;24.07;58.00
59435;BME280;45241;49.768;8.636;2022-09-09T13:17:37;99725.78;;;23.86;58.94
59435;BME280;45241;49.768;8.636;2022-09-09T13:20:03;99724.53;;;24.02;58.14
59435;BME280;45241;49.768;8.636;2022-09-09T13:22:38;99732.72;;;23.50;59.63
59435;BME280;45241;49.768;8.636;2022-09-09T13:27:35;99727.94;;;23.65;61.97
59435;BME280;45241;49.768;8.636;2022-09-09T13:32:48;99714.53;;;23.35;63.93
59435;BME280;45241;49.768;8.636;2022-09-09T13:35:24;99718.59;;;23.08;66.53
59435;BME280;45241;49.768;8.636;2022-09-09T13:37:49;99716.47;;;22.61;68.05
59435;BME280;45241;49.768;8.636;2022-09-09T13:40:18;99726.78;;;22.74;68.63
59435;BME280;45241;49.768;8.636;2022-09-09T13:42:44;99726.75;;;22.25;67.38
59435;BME280;45241;49.768;8.636;2022-09-09T13:45:22;99743.72;;;22.71;68.22
59435;BME280;45241;49.768;8.636;2022-09-09T13:47:48;99748.56;;;22.30;71.58
59435;BME280;45241;49.768;8.636;2022-09-09T13:52:52;99773.91;;;23.34;66.57
59435;BME280;45241;49.768;8.636;2022-09-09T13:55:18;99761.25;;;23.04;69.72
59435;BME280;45241;49.768;8.636;2022-09-09T13:57:50;99767.19;;;23.80;66.24
59435;BME280;45241;49.768;8.636;2022-09-09T14:00:15;99775.22;;;23.42;66.27
59435;BME280;45241;49.768;8.636;2022-09-09T14:02:40;99785.94;;;23.33;67.85
59435;BME280;45241;49.768;8.636;2022-09-09T14:05:06;99781.03;;;23.64;66.17
59435;BME280;45241;49.768;8.636;2022-09-09T14:07:31;99785.06;;;22.54;68.42
59435;BME280;45241;49.768;8.636;2022-09-09T14:09:57;99780.22;;;23.88;64.14
59435;BME280;45241;49.768;8.636;2022-09-09T14:12:22;99772.34;;;24.10;62.36
59435;BME280;45241;49.768;8.636;2022-09-09T14:14:47;99769.28;;;26.08;54.29
59435;BME280;45241;49.768;8.636;2022-09-09T14:17:13;99764.63;;;26.50;53.05
59435;BME280;45241;49.768;8.636;2022-09-09T14:19:39;99770.09;;;24.17;56.34
59435;BME280;45241;49.768;8.636;2022-09-09T14:22:04;99762.59;;;24.65;57.75
59435;BME280;45241;49.768;8.636;2022-09-09T14:24:29;99759.84;;;24.28;59.24
59435;BME280;45241;49.768;8.636;2022-09-09T14:26:55;99761.66;;;24.56;56.86
59435;BME280;45241;49.768;8.636;2022-09-09T14:29:20;99749.56;;;24.57;57.13
59435;BME280;45241;49.768;8.636;2022-09-09T14:31:45;99749.47;;;24.68;57.60
59435;BME280;45241;49.768;8.636;2022-09-09T14:34:10;99747.69;;;24.34;59.55
59435;BME280;45241;49.768;8.636;2022-09-09T14:36:36;99743.41;;;24.04;59.63
59435;BME280;45241;49.768;8.636;2022-09-09T14:39:01;99740.88;;;24.50;60.60
59435;BME280;45241;49.768;8.636;2022-09-09T14:41:26;99736.47;;;24.54;58.00
59435;BME280;45241;49.768;8.636;2022-09-09T14:43:54;99740.38;;;24.05;61.12
59435;BME280;45241;49.768;8.636;2022-09-09T14:46:19;99733.34;;;24.80;58.64
59435;BME280;45241;49.768;8.636;2022-09-09T14:48:45;99727.41;;;23.63;58.69
59435;BME280;45241;49.768;8.636;2022-09-09T14:51:21;99730.81;;;24.46;59.60
59435;BME280;45241;49.768;8.636;2022-09-09T14:53:53;99718.06;;;24.36;60.19
59435;BME280;45241;49.768;8.636;2022-09-09T14:56:20;99715.78;;;24.62;59.44
59435;BME280;45241;49.768;8.636;2022-09-09T14:58:47;99716.47;;;23.63;61.34
59435;BME280;45241;49.768;8.636;2022-09-09T15:01:14;99712.25;;;22.79;63.60
59435;BME280;45241;49.768;8.636;2022-09-09T15:03:40;99719.44;;;23.04;63.75
59435;BME280;45241;49.768;8.636;2022-09-09T15:06:07;99721.00;;;23.73;62.42